sensor_id;sensor_type;location;lat;lon;timestamp;P1;durP1;ratioP1;P2;durP2;ratioP2
19903;SDS011;10114;50.970;4.962;2022-11-15T00:00:52;28.88;;;14.95;;
19903;SDS011;10114;50.970;4.962;2022-11-15T00:03:19;26.17;;;14.70;;
19903;SDS011;10114;50.970;4.962;2022-11-15T00:05:45;34.22;;;15.25;;
19903;SDS011;10114;50.970;4.962;2022-11-15T00:08:11;27.85;;;14.73;;
19903;SDS011;10114;50.970;4.962;2022-11-15T00:10:37;28.08;;;14.65;;
19903;SDS011;10114;50.970;4.962;2022-11-15T00:13:07;24.88;;;15.05;;
19903;SDS011;10114;50.970;4.962;2022-11-15T00:15:39;29.27;;;15.27;;
19903;SDS011;10114;50.970;4.962;2022-11-15T00:18:06;29.35;;;15.60;;
19903;SDS011;10114;50.970;4.962;2022-11-15T00:20:35;25.30;;;15.35;;
19903;SDS011;10114;50.970;4.962;2022-11-15T00:23:02;27.55;;;14.73;;
19903;SDS011;10114;50.970;4.962;2022-11-15T00:25:29;26.63;;;14.35;;
19903;SDS011;10114;50.970;4.962;2022-11-15T00:27:56;23.70;;;13.65;;
19903;SDS011;10114;50.970;4.962;2022-11-15T00:30:22;30.48;;;15.00;;
19903;SDS011;10114;50.970;4.962;2022-11-15T00:32:48;25.25;;;13.85;;
19903;SDS011;10114;50.970;4.962;2022-11-15T00:35:14;28.75;;;15.13;;
19903;SDS011;10114;50.970;4.962;2022-11-15T00:37:40;26.88;;;14.30;;
19903;SDS011;10114;50.970;4.962;2022-11-15T00:40:07;32.17;;;14.57;;
19903;SDS011;10114;50.970;4.962;2022-11-15T00:42:33;26.23;;;13.75;;
19903;SDS011;10114;50.970;4.962;2022-11-15T00:44:59;24.08;;;13.77;;
19903;SDS011;10114;50.970;4.962;2022-11-15T00:47:25;33.47;;;15.05;;
19903;SDS011;10114;50.970;4.962;2022-11-15T00:49:51;27.92;;;13.40;;
19903;SDS011;10114;50.970;4.962;2022-11-15T00:52:17;26.88;;;14.27;;
19903;SDS011;10114;50.970;4.962;2022-11-15T00:54:43;25.95;;;12.77;;
19903;SDS011;10114;50.970;4.962;2022-11-15T00:57:09;26.98;;;14.27;;
19903;SDS011;10114;50.970;4.962;2022-11-15T00:59:35;24.10;;;12.85;;
19903;SDS011;10114;50.970;4.962;2022-11-15T01:02:01;30.92;;;14.32;;
19903;SDS011;10114;50.970;4.962;2022-11-15T01:04:27;27.50;;;13.95;;
19903;SDS011;10114;50.970;4.962;2022-11-15T01:06:53;27.65;;;14.82;;
19903;SDS011;10114;50.970;4.962;2022-11-15T01:09:19;26.05;;;14.40;;
19903;SDS011;10114;50.970;4.962;2022-11-15T01:11:45;24.23;;;14.18;;
19903;SDS011;10114;50.970;4.962;2022-11-15T01:14:11;23.65;;;13.75;;
19903;SDS011;10114;50.970;4.962;2022-11-15T01:16:37;24.25;;;13.20;;
19903;SDS011;10114;50.970;4.962;2022-11-15T01:19:03;26.02;;;13.38;;
19903;SDS011;10114;50.970;4.962;2022-11-15T01:21:29;25.67;;;13.27;;
19903;SDS011;10114;50.970;4.962;2022-11-15T01:23:55;24.70;;;14.15;;
19903;SDS011;10114;50.970;4.962;2022-11-15T01:26:22;26.70;;;12.95;;
19903;SDS011;10114;50.970;4.962;2022-11-15T01:28:48;22.05;;;13.07;;
19903;SDS011;10114;50.970;4.962;2022-11-15T01:31:15;22.45;;;12.85;;
19903;SDS011;10114;50.970;4.962;2022-11-15T01:33:42;26.23;;;13.68;;
19903;SDS011;10114;50.970;4.962;2022-11-15T01:36:12;23.33;;;13.07;;
19903;SDS011;10114;50.970;4.962;2022-11-15T01:38:38;22.23;;;12.80;;
19903;SDS011;10114;50.970;4.962;2022-11-15T01:41:04;23.33;;;12.85;;
19903;SDS011;10114;50.970;4.962;2022-11-15T01:43:34;30.63;;;13.20;;
19903;SDS011;10114;50.970;4.962;2022-11-15T01:48:45;23.52;;;12.57;;
19903;SDS011;10114;50.970;4.962;2022-11-15T01:51:11;26.10;;;13.30;;
19903;SDS011;10114;50.970;4.962;2022-11-15T01:53:39;23.27;;;13.30;;
19903;SDS011;10114;50.970;4.962;2022-11-15T01:56:08;21.23;;;12.65;;
19903;SDS011;10114;50.970;4.962;2022-11-15T01:58:35;27.15;;;13.63;;
19903;SDS011;10114;50.970;4.962;2022-11-15T02:01:01;25.10;;;13.70;;
19903;SDS011;10114;50.970;4.962;2022-11-15T02:03:31;25.10;;;14.00;;
19903;SDS011;10114;50.970;4.962;2022-11-15T02:05:59;25.25;;;13.55;;
19903;SDS011;10114;50.970;4.962;2022-11-15T02:08:25;23.48;;;13.10;;
19903;SDS011;10114;50.970;4.962;2022-11-15T02:10:52;23.52;;;12.73;;
19903;SDS011;10114;50.970;4.962;2022-11-15T02:13:18;23.08;;;12.98;;
19903;SDS011;10114;50.970;4.962;2022-11-15T02:18:37;19.08;;;11.63;;
19903;SDS011;10114;50.970;4.962;2022-11-15T02:21:09;23.83;;;13.23;;
19903;SDS011;10114;50.970;4.962;2022-11-15T02:34:34;25.20;;;13.65;;
19903;SDS011;10114;50.970;4.962;2022-11-15T02:42:05;25.50;;;14.65;;
19903;SDS011;10114;50.970;4.962;2022-11-15T02:44:52;25.17;;;13.60;;
19903;SDS011;10114;50.970;4.962;2022-11-15T02:47:19;23.92;;;13.63;;
19903;SDS011;10114;50.970;4.962;2022-11-15T02:49:47;26.95;;;14.48;;
19903;SDS011;10114;50.970;4.962;2022-11-15T02:52:17;25.67;;;14.18;;
19903;SDS011;10114;50.970;4.962;2022-11-15T02:54:43;26.73;;;13.32;;
19903;SDS011;10114;50.970;4.962;2022-11-15T02:57:19;23.33;;;13.80;;
19903;SDS011;10114;50.970;4.962;2022-11-15T03:05:13;32.05;;;13.95;;
19903;SDS011;10114;50.970;4.962;2022-11-15T03:07:43;30.48;;;14.95;;
19903;SDS011;10114;50.970;4.962;2022-11-15T03:12:44;27.08;;;14.30;;
19903;SDS011;10114;50.970;4.962;2022-11-15T03:15:14;27.10;;;14.02;;
19903;SDS011;10114;50.970;4.962;2022-11-15T03:18:02;27.45;;;14.25;;
19903;SDS011;10114;50.970;4.962;2022-11-15T03:20:29;26.25;;;14.93;;
19903;SDS011;10114;50.970;4.962;2022-11-15T03:22:57;28.83;;;14.23;;
19903;SDS011;10114;50.970;4.962;2022-11-15T03:25:26;25.00;;;14.52;;
19903;SDS011;10114;50.970;4.962;2022-11-15T03:27:55;26.88;;;13.88;;
19903;SDS011;10114;50.970;4.962;2022-11-15T03:30:21;28.05;;;15.07;;
19903;SDS011;10114;50.970;4.962;2022-11-15T03:32:50;32.95;;;16.00;;
19903;SDS011;10114;50.970;4.962;2022-11-15T03:35:21;23.23;;;13.63;;
19903;SDS011;10114;50.970;4.962;2022-11-15T03:40:29;26.48;;;14.73;;
19903;SDS011;10114;50.970;4.962;2022-11-15T03:43:01;30.20;;;15.57;;
19903;SDS011;10114;50.970;4.962;2022-11-15T03:45:35;30.88;;;15.40;;
19903;SDS011;10114;50.970;4.962;2022-11-15T03:48:05;25.10;;;14.15;;
19903;SDS011;10114;50.970;4.962;2022-11-15T03:50:33;26.13;;;15.60;;
19903;SDS011;10114;50.970;4.962;2022-11-15T03:52:59;28.70;;;14.95;;
19903;SDS011;10114;50.970;4.962;2022-11-15T03:55:26;28.92;;;15.32;;
19903;SDS011;10114;50.970;4.962;2022-11-15T03:57:53;28.23;;;14.85;;
19903;SDS011;10114;50.970;4.962;2022-11-15T04:00:20;29.45;;;15.10;;
19903;SDS011;10114;50.970;4.962;2022-11-15T04:02:46;30.02;;;16.38;;
19903;SDS011;10114;50.970;4.962;2022-11-15T04:05:12;28.38;;;14.75;;
19903;SDS011;10114;50.970;4.962;2022-11-15T04:07:38;29.67;;;15.73;;
19903;SDS011;10114;50.970;4.962;2022-11-15T04:10:04;29.73;;;16.40;;
19903;SDS011;10114;50.970;4.962;2022-11-15T04:12:34;31.02;;;16.42;;
19903;SDS011;10114;50.970;4.962;2022-11-15T04:15:04;33.92;;;16.23;;
19903;SDS011;10114;50.970;4.962;2022-11-15T04:20:11;31.70;;;16.00;;
19903;SDS011;10114;50.970;4.962;2022-11-15T04:22:57;34.97;;;17.05;;
19903;SDS011;10114;50.970;4.962;2022-11-15T04:25:42;34.47;;;17.27;;
19903;SDS011;10114;50.970;4.962;2022-11-15T04:28:09;29.50;;;15.13;;
19903;SDS011;10114;50.970;4.962;2022-11-15T04:30:35;25.42;;;13.80;;
19903;SDS011;10114;50.970;4.962;2022-11-15T04:33:01;28.20;;;15.85;;
19903;SDS011;10114;50.970;4.962;2022-11-15T04:35:27;30.05;;;14.68;;
19903;SDS011;10114;50.970;4.962;2022-11-15T04:37:54;30.10;;;14.40;;
19903;SDS011;10114;50.970;4.962;2022-11-15T04:40:20;28.33;;;14.80;;
19903;SDS011;10114;50.970;4.962;2022-11-15T04:42:46;29.08;;;14.55;;
19903;SDS011;10114;50.970;4.962;2022-11-15T04:45:12;26.48;;;14.30;;
19903;SDS011;10114;50.970;4.962;2022-11-15T04:47:38;25.20;;;13.93;;
19903;SDS011;10114;50.970;4.962;2022-11-15T04:50:04;26.75;;;13.68;;
19903;SDS011;10114;50.970;4.962;2022-11-15T04:52:30;28.75;;;13.63;;
19903;SDS011;10114;50.970;4.962;2022-11-15T04:54:56;25.98;;;13.82;;
19903;SDS011;10114;50.970;4.962;2022-11-15T04:57:22;23.80;;;12.85;;
19903;SDS011;10114;50.970;4.962;2022-11-15T04:59:48;26.83;;;13.07;;
19903;SDS011;10114;50.970;4.962;2022-11-15T05:02:14;27.42;;;12.90;;
19903;SDS011;10114;50.970;4.962;2022-11-15T05:04:40;25.13;;;12.80;;
19903;SDS011;10114;50.970;4.962;2022-11-15T05:07:06;23.83;;;12.57;;
19903;SDS011;10114;50.970;4.962;2022-11-15T05:09:32;29.50;;;13.32;;
19903;SDS011;10114;50.970;4.962;2022-11-15T05:11:58;23.08;;;12.73;;
19903;SDS011;10114;50.970;4.962;2022-11-15T05:14:24;24.83;;;11.90;;
19903;SDS011;10114;50.970;4.962;2022-11-15T05:16:50;22.23;;;11.77;;
19903;SDS011;10114;50.970;4.962;2022-11-15T05:19:16;21.40;;;11.65;;
19903;SDS011;10114;50.970;4.962;2022-11-15T05:21:42;20.60;;;11.35;;
19903;SDS011;10114;50.970;4.962;2022-11-15T05:24:09;25.40;;;11.80;;
19903;SDS011;10114;50.970;4.962;2022-11-15T05:26:36;21.27;;;11.50;;
19903;SDS011;10114;50.970;4.962;2022-11-15T05:29:02;27.90;;;12.23;;
19903;SDS011;10114;50.970;4.962;2022-11-15T05:31:28;22.48;;;11.93;;
19903;SDS011;10114;50.970;4.962;2022-11-15T05:33:54;19.17;;;10.55;;
19903;SDS011;10114;50.970;4.962;2022-11-15T05:36:37;20.67;;;11.25;;
19903;SDS011;10114;50.970;4.962;2022-11-15T05:39:05;23.58;;;10.93;;
19903;SDS011;10114;50.970;4.962;2022-11-15T05:41:33;23.73;;;11.68;;
19903;SDS011;10114;50.970;4.962;2022-11-15T05:44:00;21.58;;;10.75;;
19903;SDS011;10114;50.970;4.962;2022-11-15T05:46:27;24.25;;;10.85;;
19903;SDS011;10114;50.970;4.962;2022-11-15T05:48:53;21.63;;;10.85;;
19903;SDS011;10114;50.970;4.962;2022-11-15T05:51:20;19.02;;;10.55;;
19903;SDS011;10114;50.970;4.962;2022-11-15T05:53:47;20.42;;;10.55;;
19903;SDS011;10114;50.970;4.962;2022-11-15T05:56:13;23.20;;;10.38;;
19903;SDS011;10114;50.970;4.962;2022-11-15T05:58:39;20.80;;;10.50;;
19903;SDS011;10114;50.970;4.962;2022-11-15T06:01:05;21.23;;;10.70;;
19903;SDS011;10114;50.970;4.962;2022-11-15T06:03:31;23.52;;;11.85;;
19903;SDS011;10114;50.970;4.962;2022-11-15T06:05:57;19.00;;;9.43;;
19903;SDS011;10114;50.970;4.962;2022-11-15T06:08:23;21.80;;;10.02;;
19903;SDS011;10114;50.970;4.962;2022-11-15T06:10:49;22.45;;;10.73;;
19903;SDS011;10114;50.970;4.962;2022-11-15T06:13:16;19.88;;;9.82;;
19903;SDS011;10114;50.970;4.962;2022-11-15T06:15:42;17.95;;;9.57;;
19903;SDS011;10114;50.970;4.962;2022-11-15T06:18:07;20.65;;;9.57;;
19903;SDS011;10114;50.970;4.962;2022-11-15T06:20:33;20.02;;;9.65;;
19903;SDS011;10114;50.970;4.962;2022-11-15T06:23:00;19.13;;;9.43;;
19903;SDS011;10114;50.970;4.962;2022-11-15T06:25:27;26.60;;;10.23;;
19903;SDS011;10114;50.970;4.962;2022-11-15T06:27:54;20.15;;;9.25;;
19903;SDS011;10114;50.970;4.962;2022-11-15T06:30:21;19.05;;;9.25;;
19903;SDS011;10114;50.970;4.962;2022-11-15T06:32:47;20.83;;;9.70;;
19903;SDS011;10114;50.970;4.962;2022-11-15T06:35:13;22.80;;;10.07;;
19903;SDS011;10114;50.970;4.962;2022-11-15T06:37:39;19.73;;;9.02;;
19903;SDS011;10114;50.970;4.962;2022-11-15T06:40:06;18.95;;;10.32;;
19903;SDS011;10114;50.970;4.962;2022-11-15T06:42:32;19.67;;;10.18;;
19903;SDS011;10114;50.970;4.962;2022-11-15T06:44:58;21.20;;;10.45;;
19903;SDS011;10114;50.970;4.962;2022-11-15T06:47:24;23.02;;;10.15;;
19903;SDS011;10114;50.970;4.962;2022-11-15T06:49:50;23.70;;;10.40;;
19903;SDS011;10114;50.970;4.962;2022-11-15T06:52:16;17.83;;;10.30;;
19903;SDS011;10114;50.970;4.962;2022-11-15T06:54:46;25.98;;;11.73;;
19903;SDS011;10114;50.970;4.962;2022-11-15T06:57:12;20.85;;;11.10;;
19903;SDS011;10114;50.970;4.962;2022-11-15T06:59:38;19.80;;;10.60;;
19903;SDS011;10114;50.970;4.962;2022-11-15T07:02:05;21.67;;;10.60;;
19903;SDS011;10114;50.970;4.962;2022-11-15T07:04:31;21.48;;;10.70;;
19903;SDS011;10114;50.970;4.962;2022-11-15T07:06:57;22.90;;;10.82;;
19903;SDS011;10114;50.970;4.962;2022-11-15T07:09:23;21.33;;;9.85;;
19903;SDS011;10114;50.970;4.962;2022-11-15T07:11:49;24.40;;;10.18;;
19903;SDS011;10114;50.970;4.962;2022-11-15T07:14:15;21.25;;;10.43;;
19903;SDS011;10114;50.970;4.962;2022-11-15T07:16:41;24.58;;;11.02;;
19903;SDS011;10114;50.970;4.962;2022-11-15T07:19:08;21.08;;;10.48;;
19903;SDS011;10114;50.970;4.962;2022-11-15T07:21:34;19.63;;;10.82;;
19903;SDS011;10114;50.970;4.962;2022-11-15T07:24:00;20.02;;;11.02;;
19903;SDS011;10114;50.970;4.962;2022-11-15T07:26:26;20.90;;;10.50;;
19903;SDS011;10114;50.970;4.962;2022-11-15T07:28:52;23.60;;;10.23;;
19903;SDS011;10114;50.970;4.962;2022-11-15T07:31:18;20.40;;;9.93;;
19903;SDS011;10114;50.970;4.962;2022-11-15T07:33:44;21.10;;;10.95;;
19903;SDS011;10114;50.970;4.962;2022-11-15T07:36:10;16.80;;;9.27;;
19903;SDS011;10114;50.970;4.962;2022-11-15T07:38:36;17.83;;;8.90;;
19903;SDS011;10114;50.970;4.962;2022-11-15T07:41:03;16.58;;;8.65;;
19903;SDS011;10114;50.970;4.962;2022-11-15T07:43:29;17.60;;;8.63;;
19903;SDS011;10114;50.970;4.962;2022-11-15T07:45:57;18.33;;;7.72;;
19903;SDS011;10114;50.970;4.962;2022-11-15T07:48:23;17.90;;;7.82;;
19903;SDS011;10114;50.970;4.962;2022-11-15T07:50:49;13.75;;;6.72;;
19903;SDS011;10114;50.970;4.962;2022-11-15T07:53:15;13.38;;;6.22;;
19903;SDS011;10114;50.970;4.962;2022-11-15T07:55:41;15.82;;;7.40;;
19903;SDS011;10114;50.970;4.962;2022-11-15T07:58:11;15.15;;;6.88;;
19903;SDS011;10114;50.970;4.962;2022-11-15T08:00:37;12.20;;;6.20;;
19903;SDS011;10114;50.970;4.962;2022-11-15T08:03:11;11.77;;;5.88;;
19903;SDS011;10114;50.970;4.962;2022-11-15T08:05:38;12.27;;;6.13;;
19903;SDS011;10114;50.970;4.962;2022-11-15T08:08:04;13.02;;;5.93;;
19903;SDS011;10114;50.970;4.962;2022-11-15T08:10:31;17.83;;;6.45;;
19903;SDS011;10114;50.970;4.962;2022-11-15T08:12:58;14.05;;;6.38;;
19903;SDS011;10114;50.970;4.962;2022-11-15T08:15:24;13.57;;;5.32;;
19903;SDS011;10114;50.970;4.962;2022-11-15T08:17:57;12.65;;;5.20;;
19903;SDS011;10114;50.970;4.962;2022-11-15T08:20:23;10.13;;;4.78;;
19903;SDS011;10114;50.970;4.962;2022-11-15T08:22:50;11.00;;;5.03;;
19903;SDS011;10114;50.970;4.962;2022-11-15T08:25:16;9.75;;;4.60;;
19903;SDS011;10114;50.970;4.962;2022-11-15T08:27:42;8.70;;;4.82;;
19903;SDS011;10114;50.970;4.962;2022-11-15T08:30:08;13.68;;;5.10;;
19903;SDS011;10114;50.970;4.962;2022-11-15T08:32:35;8.50;;;4.35;;
19903;SDS011;10114;50.970;4.962;2022-11-15T08:35:01;10.57;;;3.88;;
19903;SDS011;10114;50.970;4.962;2022-11-15T08:37:27;9.40;;;4.32;;
19903;SDS011;10114;50.970;4.962;2022-11-15T08:39:53;7.30;;;3.95;;
19903;SDS011;10114;50.970;4.962;2022-11-15T08:42:19;9.23;;;4.60;;
19903;SDS011;10114;50.970;4.962;2022-11-15T08:44:45;11.27;;;3.80;;
19903;SDS011;10114;50.970;4.962;2022-11-15T08:47:11;10.60;;;2.88;;
19903;SDS011;10114;50.970;4.962;2022-11-15T08:49:38;9.88;;;3.60;;
19903;SDS011;10114;50.970;4.962;2022-11-15T08:52:04;7.43;;;2.95;;
19903;SDS011;10114;50.970;4.962;2022-11-15T08:54:30;4.43;;;2.42;;
19903;SDS011;10114;50.970;4.962;2022-11-15T08:56:56;5.70;;;2.30;;
19903;SDS011;10114;50.970;4.962;2022-11-15T08:59:22;5.15;;;2.13;;
19903;SDS011;10114;50.970;4.962;2022-11-15T09:01:49;5.30;;;2.00;;
19903;SDS011;10114;50.970;4.962;2022-11-15T09:04:15;6.25;;;2.28;;
19903;SDS011;10114;50.970;4.962;2022-11-15T09:06:41;7.43;;;1.75;;
19903;SDS011;10114;50.970;4.962;2022-11-15T09:09:07;5.63;;;1.90;;
19903;SDS011;10114;50.970;4.962;2022-11-15T09:11:33;5.80;;;1.88;;
19903;SDS011;10114;50.970;4.962;2022-11-15T09:13:59;10.15;;;2.03;;
19903;SDS011;10114;50.970;4.962;2022-11-15T09:16:25;8.43;;;2.15;;
19903;SDS011;10114;50.970;4.962;2022-11-15T09:18:52;6.97;;;2.00;;
19903;SDS011;10114;50.970;4.962;2022-11-15T09:21:19;5.70;;;1.65;;
19903;SDS011;10114;50.970;4.962;2022-11-15T09:23:45;4.70;;;1.65;;
19903;SDS011;10114;50.970;4.962;2022-11-15T09:26:11;5.35;;;1.17;;
19903;SDS011;10114;50.970;4.962;2022-11-15T09:28:37;3.28;;;1.20;;
19903;SDS011;10114;50.970;4.962;2022-11-15T09:31:06;3.85;;;1.40;;
19903;SDS011;10114;50.970;4.962;2022-11-15T09:33:32;4.30;;;1.40;;
19903;SDS011;10114;50.970;4.962;2022-11-15T09:36:05;5.32;;;1.20;;
19903;SDS011;10114;50.970;4.962;2022-11-15T09:38:32;6.10;;;1.52;;
19903;SDS011;10114;50.970;4.962;2022-11-15T09:43:59;5.32;;;1.08;;
19903;SDS011;10114;50.970;4.962;2022-11-15T09:49:02;8.68;;;1.27;;
19903;SDS011;10114;50.970;4.962;2022-11-15T09:51:39;3.30;;;0.90;;
19903;SDS011;10114;50.970;4.962;2022-11-15T09:56:47;5.60;;;1.17;;
19903;SDS011;10114;50.970;4.962;2022-11-15T10:04:09;5.50;;;1.10;;
19903;SDS011;10114;50.970;4.962;2022-11-15T10:06:36;6.15;;;1.08;;
19903;SDS011;10114;50.970;4.962;2022-11-15T10:09:06;7.47;;;1.42;;
19903;SDS011;10114;50.970;4.962;2022-11-15T10:11:34;4.63;;;0.90;;
19903;SDS011;10114;50.970;4.962;2022-11-15T10:14:02;5.00;;;1.00;;
19903;SDS011;10114;50.970;4.962;2022-11-15T10:19:16;2.70;;;1.02;;
19903;SDS011;10114;50.970;4.962;2022-11-15T10:21:54;5.03;;;1.00;;
19903;SDS011;10114;50.970;4.962;2022-11-15T10:24:23;3.95;;;1.00;;
19903;SDS011;10114;50.970;4.962;2022-11-15T10:26:51;10.20;;;1.40;;
19903;SDS011;10114;50.970;4.962;2022-11-15T10:29:18;4.63;;;1.15;;
19903;SDS011;10114;50.970;4.962;2022-11-15T10:31:44;6.78;;;1.40;;
19903;SDS011;10114;50.970;4.962;2022-11-15T10:34:12;6.63;;;1.20;;
19903;SDS011;10114;50.970;4.962;2022-11-15T10:36:39;8.55;;;1.25;;
19903;SDS011;10114;50.970;4.962;2022-11-15T10:39:11;4.43;;;1.10;;
19903;SDS011;10114;50.970;4.962;2022-11-15T10:41:38;5.47;;;1.25;;
19903;SDS011;10114;50.970;4.962;2022-11-15T10:46:44;8.95;;;1.45;;
19903;SDS011;10114;50.970;4.962;2022-11-15T10:49:20;6.35;;;1.00;;
19903;SDS011;10114;50.970;4.962;2022-11-15T10:51:51;6.78;;;1.25;;
19903;SDS011;10114;50.970;4.962;2022-11-15T10:54:22;5.43;;;0.90;;
19903;SDS011;10114;50.970;4.962;2022-11-15T10:56:52;5.65;;;1.10;;
19903;SDS011;10114;50.970;4.962;2022-11-15T10:59:30;2.65;;;0.93;;
19903;SDS011;10114;50.970;4.962;2022-11-15T11:01:58;8.68;;;1.58;;
19903;SDS011;10114;50.970;4.962;2022-11-15T11:04:25;3.33;;;1.02;;
19903;SDS011;10114;50.970;4.962;2022-11-15T11:06:52;8.20;;;1.30;;
19903;SDS011;10114;50.970;4.962;2022-11-15T11:09:30;11.45;;;2.15;;
19903;SDS011;10114;50.970;4.962;2022-11-15T11:11:56;9.07;;;1.30;;
19903;SDS011;10114;50.970;4.962;2022-11-15T11:14:32;5.72;;;1.13;;
19903;SDS011;10114;50.970;4.962;2022-11-15T11:22:17;9.20;;;1.20;;
19903;SDS011;10114;50.970;4.962;2022-11-15T11:27:38;4.22;;;1.05;;
19903;SDS011;10114;50.970;4.962;2022-11-15T11:30:08;7.10;;;1.20;;
19903;SDS011;10114;50.970;4.962;2022-11-15T11:37:47;4.30;;;0.93;;
19903;SDS011;10114;50.970;4.962;2022-11-15T11:40:32;4.22;;;0.82;;
19903;SDS011;10114;50.970;4.962;2022-11-15T11:43:23;3.50;;;0.90;;
19903;SDS011;10114;50.970;4.962;2022-11-15T11:46:09;7.30;;;1.02;;
19903;SDS011;10114;50.970;4.962;2022-11-15T11:51:08;5.40;;;1.48;;
19903;SDS011;10114;50.970;4.962;2022-11-15T11:56:31;5.75;;;1.05;;
19903;SDS011;10114;50.970;4.962;2022-11-15T11:59:15;3.97;;;0.80;;
19903;SDS011;10114;50.970;4.962;2022-11-15T12:01:43;5.80;;;1.15;;
19903;SDS011;10114;50.970;4.962;2022-11-15T12:06:41;4.32;;;0.80;;
19903;SDS011;10114;50.970;4.962;2022-11-15T12:14:42;9.48;;;1.40;;
19903;SDS011;10114;50.970;4.962;2022-11-15T12:17:12;4.97;;;0.95;;
19903;SDS011;10114;50.970;4.962;2022-11-15T12:19:39;5.32;;;0.90;;
19903;SDS011;10114;50.970;4.962;2022-11-15T12:22:17;5.90;;;0.90;;
19903;SDS011;10114;50.970;4.962;2022-11-15T12:29:46;6.80;;;0.70;;
19903;SDS011;10114;50.970;4.962;2022-11-15T12:32:33;8.93;;;0.85;;
19903;SDS011;10114;50.970;4.962;2022-11-15T12:35:00;5.65;;;0.90;;
19903;SDS011;10114;50.970;4.962;2022-11-15T12:45:37;3.53;;;0.85;;
19903;SDS011;10114;50.970;4.962;2022-11-15T12:58:43;4.05;;;0.95;;
19903;SDS011;10114;50.970;4.962;2022-11-15T13:01:51;4.85;;;0.98;;
19903;SDS011;10114;50.970;4.962;2022-11-15T13:06:51;4.80;;;0.90;;
19903;SDS011;10114;50.970;4.962;2022-11-15T13:12:03;3.03;;;0.65;;
19903;SDS011;10114;50.970;4.962;2022-11-15T13:20:32;5.65;;;1.13;;
19903;SDS011;10114;50.970;4.962;2022-11-15T13:22:39;4.22;;;0.70;;
19903;SDS011;10114;50.970;4.962;2022-11-15T13:27:53;6.15;;;0.98;;
19903;SDS011;10114;50.970;4.962;2022-11-15T13:30:23;4.93;;;0.85;;
19903;SDS011;10114;50.970;4.962;2022-11-15T13:32:49;3.95;;;1.10;;
19903;SDS011;10114;50.970;4.962;2022-11-15T13:35:36;5.00;;;1.00;;
19903;SDS011;10114;50.970;4.962;2022-11-15T13:38:04;3.78;;;1.00;;
19903;SDS011;10114;50.970;4.962;2022-11-15T13:40:36;4.60;;;0.88;;
19903;SDS011;10114;50.970;4.962;2022-11-15T13:46:12;5.43;;;1.08;;
19903;SDS011;10114;50.970;4.962;2022-11-15T13:48:39;6.35;;;1.30;;
19903;SDS011;10114;50.970;4.962;2022-11-15T13:51:12;3.13;;;1.00;;
19903;SDS011;10114;50.970;4.962;2022-11-15T13:53:40;5.00;;;0.98;;
19903;SDS011;10114;50.970;4.962;2022-11-15T13:56:08;5.80;;;1.10;;
19903;SDS011;10114;50.970;4.962;2022-11-15T13:58:36;5.45;;;0.90;;
19903;SDS011;10114;50.970;4.962;2022-11-15T14:01:04;8.13;;;1.35;;
19903;SDS011;10114;50.970;4.962;2022-11-15T14:03:42;4.75;;;0.90;;
19903;SDS011;10114;50.970;4.962;2022-11-15T14:06:13;3.55;;;1.00;;
19903;SDS011;10114;50.970;4.962;2022-11-15T14:08:41;3.53;;;1.00;;
19903;SDS011;10114;50.970;4.962;2022-11-15T14:11:17;3.25;;;0.98;;
19903;SDS011;10114;50.970;4.962;2022-11-15T14:16:33;6.13;;;1.48;;
19903;SDS011;10114;50.970;4.962;2022-11-15T14:19:00;4.40;;;1.10;;
19903;SDS011;10114;50.970;4.962;2022-11-15T14:21:26;4.35;;;1.02;;
19903;SDS011;10114;50.970;4.962;2022-11-15T14:23:52;4.28;;;1.20;;
19903;SDS011;10114;50.970;4.962;2022-11-15T14:26:29;6.10;;;1.25;;
19903;SDS011;10114;50.970;4.962;2022-11-15T14:28:55;3.75;;;1.10;;
19903;SDS011;10114;50.970;4.962;2022-11-15T14:31:21;4.07;;;1.10;;
19903;SDS011;10114;50.970;4.962;2022-11-15T14:33:47;3.28;;;0.82;;
19903;SDS011;10114;50.970;4.962;2022-11-15T14:36:14;3.28;;;1.10;;
19903;SDS011;10114;50.970;4.962;2022-11-15T14:38:41;3.25;;;0.90;;
19903;SDS011;10114;50.970;4.962;2022-11-15T14:41:26;4.03;;;0.95;;
19903;SDS011;10114;50.970;4.962;2022-11-15T14:43:52;7.60;;;1.10;;
19903;SDS011;10114;50.970;4.962;2022-11-15T14:46:18;5.03;;;1.00;;
19903;SDS011;10114;50.970;4.962;2022-11-15T14:48:44;2.88;;;0.90;;
19903;SDS011;10114;50.970;4.962;2022-11-15T14:51:11;4.70;;;1.83;;
19903;SDS011;10114;50.970;4.962;2022-11-15T14:53:38;2.33;;;1.10;;
19903;SDS011;10114;50.970;4.962;2022-11-15T14:56:04;3.63;;;1.10;;
19903;SDS011;10114;50.970;4.962;2022-11-15T14:58:30;7.15;;;3.38;;
19903;SDS011;10114;50.970;4.962;2022-11-15T15:00:56;10.88;;;4.50;;
19903;SDS011;10114;50.970;4.962;2022-11-15T15:03:22;6.25;;;2.45;;
19903;SDS011;10114;50.970;4.962;2022-11-15T15:05:48;5.22;;;1.60;;
19903;SDS011;10114;50.970;4.962;2022-11-15T15:08:14;3.47;;;1.30;;
19903;SDS011;10114;50.970;4.962;2022-11-15T15:10:44;5.45;;;1.63;;
19903;SDS011;10114;50.970;4.962;2022-11-15T15:13:18;2.75;;;1.20;;
19903;SDS011;10114;50.970;4.962;2022-11-15T15:15:45;4.05;;;1.40;;
19903;SDS011;10114;50.970;4.962;2022-11-15T15:18:11;3.72;;;1.50;;
19903;SDS011;10114;50.970;4.962;2022-11-15T15:20:38;4.13;;;1.40;;
19903;SDS011;10114;50.970;4.962;2022-11-15T15:23:05;4.22;;;1.10;;
19903;SDS011;10114;50.970;4.962;2022-11-15T15:25:32;4.10;;;1.70;;
19903;SDS011;10114;50.970;4.962;2022-11-15T15:27:59;4.20;;;1.45;;
19903;SDS011;10114;50.970;4.962;2022-11-15T15:30:26;4.20;;;1.77;;
19903;SDS011;10114;50.970;4.962;2022-11-15T15:32:53;7.53;;;1.98;;
19903;SDS011;10114;50.970;4.962;2022-11-15T15:35:19;5.78;;;1.10;;
19903;SDS011;10114;50.970;4.962;2022-11-15T15:37:45;4.97;;;1.50;;
19903;SDS011;10114;50.970;4.962;2022-11-15T15:42:37;6.00;;;1.60;;
19903;SDS011;10114;50.970;4.962;2022-11-15T15:45:04;5.10;;;1.20;;
19903;SDS011;10114;50.970;4.962;2022-11-15T15:47:30;3.85;;;1.30;;
19903;SDS011;10114;50.970;4.962;2022-11-15T15:49:58;4.85;;;1.50;;
19903;SDS011;10114;50.970;4.962;2022-11-15T15:52:24;5.28;;;1.60;;
19903;SDS011;10114;50.970;4.962;2022-11-15T15:54:50;5.10;;;2.20;;
19903;SDS011;10114;50.970;4.962;2022-11-15T15:57:16;4.00;;;1.55;;
19903;SDS011;10114;50.970;4.962;2022-11-15T15:59:43;5.43;;;2.00;;
19903;SDS011;10114;50.970;4.962;2022-11-15T16:02:12;10.40;;;2.05;;
19903;SDS011;10114;50.970;4.962;2022-11-15T16:04:39;5.88;;;1.90;;
19903;SDS011;10114;50.970;4.962;2022-11-15T16:07:05;9.13;;;3.53;;
19903;SDS011;10114;50.970;4.962;2022-11-15T16:09:31;6.20;;;2.15;;
19903;SDS011;10114;50.970;4.962;2022-11-15T16:12:15;6.97;;;1.83;;
19903;SDS011;10114;50.970;4.962;2022-11-15T16:14:42;6.78;;;2.10;;
19903;SDS011;10114;50.970;4.962;2022-11-15T16:17:15;6.60;;;2.20;;
19903;SDS011;10114;50.970;4.962;2022-11-15T16:19:42;4.82;;;1.65;;
19903;SDS011;10114;50.970;4.962;2022-11-15T16:22:08;6.05;;;1.95;;
19903;SDS011;10114;50.970;4.962;2022-11-15T16:24:35;7.47;;;2.28;;
19903;SDS011;10114;50.970;4.962;2022-11-15T16:27:01;7.57;;;2.22;;
19903;SDS011;10114;50.970;4.962;2022-11-15T16:29:27;7.88;;;2.30;;
19903;SDS011;10114;50.970;4.962;2022-11-15T16:31:53;6.07;;;2.58;;
19903;SDS011;10114;50.970;4.962;2022-11-15T16:34:19;6.28;;;2.40;;
19903;SDS011;10114;50.970;4.962;2022-11-15T16:36:45;7.18;;;2.67;;
19903;SDS011;10114;50.970;4.962;2022-11-15T16:39:11;4.15;;;1.83;;
19903;SDS011;10114;50.970;4.962;2022-11-15T16:41:38;5.78;;;2.50;;
19903;SDS011;10114;50.970;4.962;2022-11-15T16:44:04;7.82;;;2.25;;